Time;durP1;ratioP1;P1;durP2;ratioP2;P2;SDS_P1;SDS_P2;PMS_P1;PMS_P2;Temp;Humidity;BMP_temperature;BMP_pressure;BME280_temperature;BME280_humidity;BME280_pressure;Samples;Min_cycle;Max_cycle;Signal;HPM_P1;HPM_P2
2021/11/24 00:00:00;;;;;;;38.30;20.60;;;;;;;6.02;82.18;100949.14;126446;1310;108616;-76
2021/11/24 00:03:06;;;;;;;34.30;18.30;;;;;;;5.92;82.06;100950.54;126482;1311;108701;-77
2021/11/24 00:06:12;;;;;;;33.20;17.90;;;;;;;5.85;82.19;100953.45;126483;1313;107465;-80
2021/11/24 00:09:17;;;;;;;36.40;18.50;;;;;;;5.85;82.47;100952.20;126464;1312;108951;-80
2021/11/24 00:12:22;;;;;;;95.80;36.50;;;;;;;5.85;82.22;100950.29;126444;1313;108149;-83
2021/11/24 00:15:28;;;;;;;52.70;22.60;;;;;;;5.88;82.28;100948.30;126556;1316;108729;-81
2021/11/24 00:18:34;;;;;;;38.50;20.20;;;;;;;5.86;81.90;100950.38;126536;1316;108906;-81
2021/11/24 00:21:39;;;;;;;33.90;19.00;;;;;;;5.86;82.21;100950.20;126622;1311;108880;-83
2021/11/24 00:24:45;;;;;;;32.70;16.90;;;;;;;5.87;82.01;100950.65;126563;1313;108015;-82
2021/11/24 00:27:50;;;;;;;30.00;17.50;;;;;;;5.87;82.21;100954.94;126480;1313;108826;-82
2021/11/24 00:30:56;;;;;;;28.70;16.30;;;;;;;5.88;82.05;100956.21;126493;1316;108817;-81
2021/11/24 00:34:01;;;;;;;27.80;16.60;;;;;;;5.92;81.93;100952.80;126516;1313;109247;-85
2021/11/24 00:37:07;;;;;;;31.40;16.90;;;;;;;5.96;81.99;100953.28;126509;1316;108904;-83
2021/11/24 00:40:12;;;;;;;29.90;17.30;;;;;;;5.98;82.06;100953.16;126576;1313;108695;-82
2021/11/24 00:43:18;;;;;;;31.80;18.30;;;;;;;5.98;82.05;100949.73;126571;1316;109022;-81
2021/11/24 00:46:23;;;;;;;36.20;20.20;;;;;;;5.97;81.91;100950.56;126570;1312;108675;-79
2021/11/24 00:49:29;;;;;;;42.20;21.10;;;;;;;5.91;81.94;100950.40;126556;1313;108838;-78
2021/11/24 00:52:34;;;;;;;39.00;19.40;;;;;;;5.92;81.98;100948.24;126412;1316;108611;-77
2021/11/24 00:55:40;;;;;;;32.70;18.30;;;;;;;5.97;82.02;100953.23;126377;1313;109332;-77
2021/11/24 00:58:45;;;;;;;37.90;20.40;;;;;;;6.00;82.04;100950.50;126522;1313;108821;-80
2021/11/24 01:01:51;;;;;;;36.40;19.80;;;;;;;6.04;82.00;100948.13;126557;1311;108896;-82
2021/11/24 01:04:56;;;;;;;35.50;20.30;;;;;;;6.03;81.65;100946.82;126510;1316;108854;-79
2021/11/24 01:08:02;;;;;;;33.40;17.70;;;;;;;5.96;81.71;100949.21;126556;1313;108586;-80
2021/11/24 01:11:08;;;;;;;35.30;18.50;;;;;;;5.93;82.03;100948.32;126568;1313;108350;-80
2021/11/24 01:14:14;;;;;;;35.60;18.80;;;;;;;5.96;81.94;100943.35;126551;1316;107537;-80
2021/11/24 01:17:19;;;;;;;39.00;20.30;;;;;;;6.01;81.78;100940.58;126585;1313;109052;-80
2021/11/24 01:20:25;;;;;;;38.40;20.50;;;;;;;6.04;81.84;100932.41;126596;1312;108831;-83
2021/11/24 01:23:30;;;;;;;37.80;19.70;;;;;;;6.06;81.82;100930.35;126500;1311;108911;-82
2021/11/24 01:26:36;;;;;;;36.40;20.70;;;;;;;6.04;82.01;100925.55;126504;1316;109000;-80
2021/11/24 01:29:41;;;;;;;38.60;20.10;;;;;;;6.02;81.81;100920.15;126635;1316;108886;-80
2021/11/24 01:32:47;;;;;;;35.60;19.40;;;;;;;6.02;81.79;100914.34;127448;1313;108825;-81
2021/11/24 01:35:52;;;;;;;40.70;21.30;;;;;;;6.04;81.78;100913.70;128020;1316;107400;-81
2021/11/24 01:38:58;;;;;;;38.90;20.50;;;;;;;6.07;81.59;100910.63;128035;1312;108691;-79
2021/11/24 01:42:03;;;;;;;42.60;22.00;;;;;;;6.13;81.79;100913.62;126669;1316;107524;-79
2021/11/24 01:45:12;;;;;;;37.80;21.50;;;;;;;6.16;81.48;100912.48;126491;1310;108948;-78
2021/11/24 01:48:18;;;;;;;41.30;22.90;;;;;;;6.17;81.55;100909.94;126541;1311;108764;-81
2021/11/24 01:51:24;;;;;;;39.80;19.80;;;;;;;6.15;81.63;100909.35;126568;1312;108828;-81
2021/11/24 01:54:30;;;;;;;37.60;19.00;;;;;;;6.14;81.72;100906.61;126549;1312;108690;-81
2021/11/24 01:57:36;;;;;;;39.40;20.70;;;;;;;6.14;81.58;100906.30;126512;1313;109021;-80
2021/11/24 02:00:41;;;;;;;38.50;20.50;;;;;;;6.17;81.49;100905.38;126578;1316;107550;-80
2021/11/24 02:03:47;;;;;;;36.10;20.10;;;;;;;6.18;81.54;100900.84;126539;1310;108907;-80
2021/11/24 02:06:54;;;;;;;36.40;20.30;;;;;;;6.19;81.53;100901.12;126461;1313;108673;-77
2021/11/24 02:09:59;;;;;;;37.70;20.70;;;;;;;6.19;81.61;100902.38;126507;1313;108870;-76
2021/11/24 02:13:05;;;;;;;45.40;20.30;;;;;;;6.16;81.65;100897.45;126322;1316;108937;-76
2021/11/24 02:16:10;;;;;;;36.70;18.10;;;;;;;6.13;81.56;100897.71;126354;1311;108915;-74
2021/11/24 02:19:16;;;;;;;38.40;20.10;;;;;;;6.15;81.74;100895.63;126423;1313;108448;-77
2021/11/24 02:22:22;;;;;;;37.40;19.90;;;;;;;6.18;81.87;100896.46;126439;1311;108227;-78
2021/11/24 02:25:27;;;;;;;38.40;20.70;;;;;;;6.22;81.86;100889.81;126391;1313;108811;-78
2021/11/24 02:28:33;;;;;;;41.30;20.30;;;;;;;6.24;81.79;100885.56;126365;1316;108882;-79
2021/11/24 02:31:39;;;;;;;40.00;19.80;;;;;;;6.24;81.51;100885.59;126403;1313;108759;-76
2021/11/24 02:34:45;;;;;;;38.20;19.20;;;;;;;6.21;81.62;100884.42;126422;1313;108701;-77
2021/11/24 02:37:50;;;;;;;39.60;19.30;;;;;;;6.19;81.42;100886.33;126409;1313;108729;-79
2021/11/24 02:40:56;;;;;;;39.30;19.70;;;;;;;6.17;81.69;100883.05;126428;1312;107700;-78
2021/11/24 02:44:17;;;;;;;37.60;20.60;;;;;;;6.20;81.81;100876.31;126473;1312;108809;-79
2021/11/24 02:47:25;;;;;;;39.60;20.60;;;;;;;6.26;81.75;100872.04;126541;1311;109141;-78
2021/11/24 02:50:31;;;;;;;36.80;20.40;;;;;;;6.28;81.60;100866.01;126476;1313;107629;-79
2021/11/24 02:53:38;;;;;;;37.30;19.60;;;;;;;6.27;81.59;100866.12;126438;1313;108870;-81
2021/11/24 02:56:45;;;;;;;35.80;17.60;;;;;;;6.23;81.72;100860.73;126446;1313;108714;-80
2021/11/24 02:59:50;;;;;;;31.00;16.70;;;;;;;6.18;81.60;100860.04;126502;1313;108730;-78
2021/11/24 03:02:56;;;;;;;34.70;19.10;;;;;;;6.17;81.75;100852.67;126435;1313;108781;-79
2021/11/24 03:06:01;;;;;;;32.40;17.90;;;;;;;6.20;81.57;100849.84;126458;1312;108964;-78
2021/11/24 03:09:07;;;;;;;32.80;17.60;;;;;;;6.24;81.60;100849.71;126454;1313;108958;-79
2021/11/24 03:12:13;;;;;;;27.90;15.90;;;;;;;6.27;81.58;100852.70;126572;1313;108380;-80
2021/11/24 03:15:18;;;;;;;28.40;16.20;;;;;;;6.26;81.50;100848.88;126522;1313;108732;-76
2021/11/24 03:18:24;;;;;;;26.60;14.60;;;;;;;6.24;81.38;100848.65;126461;1313;107864;-77
2021/11/24 03:21:29;;;;;;;25.00;13.50;;;;;;;6.22;81.72;100843.32;126419;1313;108624;-78
2021/11/24 03:24:35;;;;;;;23.70;13.20;;;;;;;6.23;81.62;100845.92;126393;1313;109020;-77
2021/11/24 03:27:42;;;;;;;25.90;13.90;;;;;;;6.24;81.67;100843.36;126415;1313;108850;-80
2021/11/24 03:30:48;;;;;;;21.60;13.30;;;;;;;6.27;81.70;100845.77;126476;1313;108886;-79
2021/11/24 03:33:53;;;;;;;22.10;13.70;;;;;;;6.29;81.48;100836.29;126411;1313;108890;-80
2021/11/24 03:36:59;;;;;;;23.60;13.80;;;;;;;6.28;81.57;100834.23;126568;1313;107736;-80
2021/11/24 03:40:08;;;;;;;21.10;11.70;;;;;;;6.26;81.70;100834.02;126624;1312;108892;-79
2021/11/24 03:43:13;;;;;;;21.20;12.00;;;;;;;6.25;81.65;100832.52;126459;1313;108952;-78
2021/11/24 03:46:19;;;;;;;20.80;12.70;;;;;;;6.25;81.55;100827.20;126361;1313;108814;-78
2021/11/24 03:49:24;;;;;;;22.40;12.90;;;;;;;6.27;81.52;100821.77;126398;1316;108959;-75
2021/11/24 03:52:30;;;;;;;21.10;13.10;;;;;;;6.31;81.64;100825.92;126377;1312;109032;-81
2021/11/24 03:55:35;;;;;;;23.40;14.10;;;;;;;6.31;81.63;100833.34;126507;1311;107697;-79
2021/11/24 03:58:41;;;;;;;23.10;14.40;;;;;;;6.30;81.40;100837.83;126483;1311;108645;-79
2021/11/24 04:01:46;;;;;;;24.90;14.60;;;;;;;6.27;81.42;100844.23;126468;1313;108926;-76
2021/11/24 04:04:52;;;;;;;21.60;12.30;;;;;;;6.23;81.45;100847.49;126459;1313;108887;-80
2021/11/24 04:07:58;;;;;;;19.30;11.80;;;;;;;6.21;81.71;100843.36;126540;1313;108666;-79
2021/11/24 04:11:04;;;;;;;22.90;12.90;;;;;;;6.23;81.61;100843.64;128174;1313;108787;-81
2021/11/24 04:14:10;;;;;;;23.00;13.70;;;;;;;6.26;81.52;100839.30;127142;1313;108638;-81
2021/11/24 04:17:16;;;;;;;23.20;13.40;;;;;;;6.29;81.43;100831.67;126599;1312;107720;-78
2021/11/24 04:20:23;;;;;;;22.90;13.60;;;;;;;6.30;81.40;100831.62;126389;1310;108790;-80
2021/11/24 04:23:28;;;;;;;20.70;13.50;;;;;;;6.28;81.29;100830.90;126469;1313;109072;-80
2021/11/24 04:26:34;;;;;;;21.10;12.50;;;;;;;6.26;81.40;100836.36;126494;1310;109180;-77
2021/11/24 04:29:40;;;;;;;20.50;11.90;;;;;;;6.23;81.21;100840.29;126410;1313;107142;-78
2021/11/24 04:32:46;;;;;;;19.00;12.10;;;;;;;6.20;81.35;100838.85;126421;1311;108743;-77
2021/11/24 04:35:52;;;;;;;22.20;12.80;;;;;;;6.24;81.46;100831.55;126541;1316;107700;-77
2021/11/24 04:38:57;;;;;;;21.10;12.70;;;;;;;6.28;81.35;100831.02;126437;1313;108860;-76
2021/11/24 04:42:03;;;;;;;21.30;13.10;;;;;;;6.30;81.31;100832.00;126395;1312;109019;-76
2021/11/24 04:45:09;;;;;;;20.70;13.30;;;;;;;6.29;81.30;100830.23;126382;1313;109743;-76
2021/11/24 04:48:15;;;;;;;30.40;17.80;;;;;;;6.29;81.08;100831.90;126415;1313;108861;-77
2021/11/24 04:51:20;;;;;;;128.30;51.40;;;;;;;6.26;81.31;100828.91;126394;1311;108798;-76
2021/11/24 04:54:25;;;;;;;57.40;33.30;;;;;;;6.26;81.21;100829.94;126370;1313;108795;-76
2021/11/24 04:57:31;;;;;;;262.20;103.80;;;;;;;6.28;81.23;100829.50;126427;1312;107409;-76
2021/11/24 05:00:37;;;;;;;61.10;32.10;;;;;;;6.31;81.18;100827.66;126345;1312;108858;-75
2021/11/24 05:03:42;;;;;;;35.80;18.90;;;;;;;6.33;81.40;100826.84;126412;1313;108789;-77
2021/11/24 05:06:48;;;;;;;31.20;19.60;;;;;;;6.35;81.32;100824.23;126390;1316;108736;-76
2021/11/24 05:09:53;;;;;;;39.20;26.10;;;;;;;6.34;81.30;100825.90;126365;1316;106655;-75
2021/11/24 05:13:00;;;;;;;25.80;16.40;;;;;;;6.33;81.36;100825.55;126297;1311;109613;-76
2021/11/24 05:16:07;;;;;;;24.50;14.80;;;;;;;6.33;81.19;100830.75;126444;1316;109202;-75
2021/11/24 05:19:18;;;;;;;31.60;19.20;;;;;;;6.34;81.30;100830.11;126419;1310;108724;-76
2021/11/24 05:22:23;;;;;;;23.30;15.20;;;;;;;6.36;81.22;100822.17;126358;1312;109850;-76
2021/11/24 05:25:29;;;;;;;25.50;17.30;;;;;;;6.39;81.37;100816.33;126285;1313;107615;-75
2021/11/24 05:28:35;;;;;;;24.50;15.40;;;;;;;6.38;81.28;100813.95;126337;1312;108752;-76
2021/11/24 05:31:40;;;;;;;20.30;13.40;;;;;;;6.36;81.10;100812.85;126476;1310;109018;-78
2021/11/24 05:34:46;;;;;;;21.50;13.60;;;;;;;6.33;81.09;100813.27;126456;1316;108852;-78
2021/11/24 05:37:53;;;;;;;23.00;15.00;;;;;;;6.33;81.22;100812.04;126486;1310;108908;-77
2021/11/24 05:40:58;;;;;;;21.80;14.90;;;;;;;6.32;81.18;100814.56;126467;1311;108683;-79
2021/11/24 05:44:15;;;;;;;22.80;16.30;;;;;;;6.36;81.35;100814.80;126443;1311;108794;-77
2021/11/24 05:50:41;;;;;;;96.60;64.80;;;;;;;6.36;81.14;100822.02;126491;1310;109043;-79
2021/11/24 05:53:47;;;;;;;134.40;67.00;;;;;;;6.33;81.18;100824.33;126480;1312;108804;-78
2021/11/24 05:56:52;;;;;;;252.30;115.70;;;;;;;6.32;81.18;100825.35;126418;1313;108824;-78
2021/11/24 05:59:57;;;;;;;49.00;26.30;;;;;;;6.31;81.35;100822.38;126524;1313;107505;-76
2021/11/24 06:03:03;;;;;;;303.70;160.80;;;;;;;6.33;81.42;100819.41;126485;1312;108992;-80
2021/11/24 06:06:09;;;;;;;201.20;101.30;;;;;;;6.36;80.96;100818.49;126560;1313;108906;-80
2021/11/24 06:09:14;;;;;;;188.10;94.50;;;;;;;6.36;81.16;100820.94;126563;1311;109038;-79
2021/11/24 06:12:19;;;;;;;79.30;40.00;;;;;;;6.36;80.89;100824.35;126416;1310;109480;-78
2021/11/24 06:15:25;;;;;;;43.70;27.10;;;;;;;6.34;81.17;100823.04;126394;1312;108837;-76
2021/11/24 06:18:30;;;;;;;46.80;30.20;;;;;;;6.33;81.20;100829.98;126332;1313;108799;-81
2021/11/24 06:21:36;;;;;;;27.40;15.50;;;;;;;6.35;81.10;100827.95;126442;1312;107883;-78
2021/11/24 06:24:41;;;;;;;22.90;14.80;;;;;;;6.37;81.09;100830.09;126375;1311;108830;-78
2021/11/24 06:27:47;;;;;;;24.50;15.90;;;;;;;6.40;81.15;100832.00;126560;1313;108765;-78
2021/11/24 06:30:52;;;;;;;27.60;17.20;;;;;;;6.41;80.79;100836.13;126786;1313;108958;-80
2021/11/24 06:33:58;;;;;;;21.40;14.30;;;;;;;6.40;80.74;100836.22;126523;1311;109026;-80
2021/11/24 06:37:04;;;;;;;22.80;14.40;;;;;;;6.37;80.89;100835.73;126451;1313;108938;-79
2021/11/24 06:40:12;;;;;;;23.30;13.10;;;;;;;6.34;80.95;100834.00;126439;1312;109025;-78
2021/11/24 06:43:18;;;;;;;18.20;11.60;;;;;;;6.34;81.18;100835.41;126460;1313;108734;-80
2021/11/24 06:46:23;;;;;;;20.00;12.30;;;;;;;6.36;81.07;100837.94;126474;1312;108742;-78
2021/11/24 06:49:29;;;;;;;20.10;13.40;;;;;;;6.39;80.94;100837.88;126356;1313;108793;-80
2021/11/24 06:52:34;;;;;;;20.80;13.80;;;;;;;6.42;80.96;100841.20;126385;1312;108989;-80
2021/11/24 06:55:40;;;;;;;20.10;13.40;;;;;;;6.44;80.90;100841.23;126335;1313;108909;-78
2021/11/24 06:58:45;;;;;;;22.20;14.20;;;;;;;6.46;80.61;100842.47;126346;1312;109201;-78
2021/11/24 07:01:50;;;;;;;20.20;12.50;;;;;;;6.45;81.01;100843.65;126327;1313;108787;-77
2021/11/24 07:04:56;;;;;;;20.40;12.70;;;;;;;6.44;81.03;100842.47;126223;1312;197182;-80
2021/11/24 07:08:01;;;;;;;20.10;13.10;;;;;;;6.43;80.83;100847.50;126663;1312;108832;-80
2021/11/24 07:11:07;;;;;;;19.50;12.20;;;;;;;6.46;80.98;100852.93;126325;1313;108788;-77
2021/11/24 07:14:12;;;;;;;18.20;12.00;;;;;;;6.49;80.82;100857.80;126352;1311;108804;-78
2021/11/24 07:17:18;;;;;;;19.10;12.40;;;;;;;6.53;80.28;100861.45;126448;1312;109561;-81
2021/11/24 07:20:23;;;;;;;18.80;12.60;;;;;;;6.57;80.78;100859.72;126508;1315;108792;-79
2021/11/24 07:23:28;;;;;;;20.00;13.20;;;;;;;6.60;80.63;100857.56;126374;1313;108821;-80
2021/11/24 07:26:34;;;;;;;23.30;14.70;;;;;;;6.57;80.30;100861.27;126384;1312;108879;-79
2021/11/24 07:29:39;;;;;;;50.90;28.60;;;;;;;6.58;80.64;100860.52;126401;1312;108752;-79
2021/11/24 07:32:45;;;;;;;59.80;33.90;;;;;;;6.63;80.44;100857.67;126431;1311;108777;-79
2021/11/24 07:35:50;;;;;;;27.50;17.60;;;;;;;6.66;80.47;100857.98;126378;1313;108701;-80
2021/11/24 07:38:56;;;;;;;28.20;18.80;;;;;;;6.71;80.37;100854.48;126355;1312;109044;-79
2021/11/24 07:42:02;;;;;;;24.10;15.20;;;;;;;6.77;80.51;100848.06;126383;1313;108453;-78
2021/11/24 07:45:10;;;;;;;30.10;20.90;;;;;;;6.79;80.42;100852.77;126374;1313;108754;-80
2021/11/24 07:48:15;;;;;;;26.80;18.90;;;;;;;6.80;80.31;100853.11;126463;1312;108938;-80
2021/11/24 07:51:20;;;;;;;19.60;12.70;;;;;;;6.78;80.24;100848.08;126392;1313;108715;-80
2021/11/24 07:54:26;;;;;;;19.70;12.00;;;;;;;6.76;80.19;100855.67;126336;1310;107293;-80
2021/11/24 07:57:31;;;;;;;20.00;13.70;;;;;;;6.75;79.93;100855.21;126486;1313;108734;-80
2021/11/24 08:00:36;;;;;;;19.40;13.10;;;;;;;6.76;80.11;100851.64;126419;1313;108725;-80
2021/11/24 08:03:42;;;;;;;20.10;13.10;;;;;;;6.79;79.88;100844.88;126450;1310;108792;-81
2021/11/24 08:06:47;;;;;;;20.40;13.50;;;;;;;6.81;80.25;100845.61;126366;1313;108931;-80
2021/11/24 08:09:53;;;;;;;19.60;13.30;;;;;;;6.84;79.91;100847.98;126457;1311;108921;-80
2021/11/24 08:12:58;;;;;;;19.90;14.30;;;;;;;6.84;79.81;100837.57;126431;1313;108752;-78
2021/11/24 08:16:04;;;;;;;19.10;12.40;;;;;;;6.84;79.89;100843.38;126285;1313;108814;-78
2021/11/24 08:19:09;;;;;;;20.10;12.40;;;;;;;6.84;79.87;100844.46;126363;1313;108759;-79
2021/11/24 08:22:14;;;;;;;19.10;12.90;;;;;;;6.87;80.00;100844.05;126409;1313;108786;-80
2021/11/24 08:25:20;;;;;;;22.60;15.20;;;;;;;6.97;80.01;100843.52;126356;1310;109023;-80
2021/11/24 08:28:26;;;;;;;19.10;13.90;;;;;;;7.06;79.99;100843.70;126387;1316;108949;-80
2021/11/24 08:31:31;;;;;;;20.20;14.50;;;;;;;7.12;79.87;100848.25;126315;1311;108719;-80
2021/11/24 08:34:37;;;;;;;19.70;13.90;;;;;;;7.13;79.78;100844.47;126406;1313;108686;-79
2021/11/24 08:37:42;;;;;;;19.90;13.60;;;;;;;7.12;79.52;100849.14;126351;1313;108747;-79
2021/11/24 08:40:48;;;;;;;22.80;13.90;;;;;;;7.12;79.75;100851.94;126352;1310;108796;-79
2021/11/24 08:43:53;;;;;;;19.10;11.60;;;;;;;7.15;79.89;100852.95;126382;1312;109005;-80
2021/11/24 08:46:58;;;;;;;20.20;12.90;;;;;;;7.22;79.66;100846.42;126377;1312;108896;-80
2021/11/24 08:50:05;;;;;;;21.90;14.10;;;;;;;7.27;79.34;100850.30;126420;1313;108905;-80
2021/11/24 08:53:10;;;;;;;21.40;13.90;;;;;;;7.31;79.59;100849.09;126466;1313;108890;-80
2021/11/24 08:56:16;;;;;;;23.30;15.20;;;;;;;7.33;78.88;100840.41;126380;1313;108914;-79
2021/11/24 08:59:21;;;;;;;18.90;13.30;;;;;;;7.31;79.34;100843.73;126376;1313;108846;-80
2021/11/24 09:02:28;;;;;;;23.50;15.90;;;;;;;7.33;79.31;100845.52;126335;1312;108840;-80
2021/11/24 09:05:34;;;;;;;19.80;12.80;;;;;;;7.32;79.46;100846.16;126423;1312;109027;-80
2021/11/24 09:08:40;;;;;;;19.40;12.20;;;;;;;7.31;79.45;100846.02;126456;1312;108934;-80
2021/11/24 09:11:46;;;;;;;19.40;13.20;;;;;;;7.31;79.30;100845.91;126411;1313;108952;-80
2021/11/24 09:14:51;;;;;;;21.10;14.00;;;;;;;7.32;79.18;100846.33;126461;1313;108825;-80
2021/11/24 09:17:56;;;;;;;20.50;13.80;;;;;;;7.35;79.01;100850.39;126463;1312;108942;-80
2021/11/24 09:21:02;;;;;;;19.80;12.70;;;;;;;7.36;79.07;100849.42;126330;1313;109202;-80
2021/11/24 09:24:13;;;;;;;19.40;12.80;;;;;;;7.35;78.94;100850.84;126304;1310;108941;-80
2021/11/24 09:27:28;;;;;;;21.50;13.40;;;;;;;7.30;79.07;100848.64;126081;1314;108896;-80
2021/11/24 09:30:34;;;;;;;17.50;10.70;;;;;;;7.24;78.92;100845.14;126524;1314;109490;-79
2021/11/24 09:33:39;;;;;;;15.80;9.90;;;;;;;7.22;79.08;100841.42;126474;1312;108564;-80
2021/11/24 09:36:45;;;;;;;18.60;11.20;;;;;;;7.23;78.81;100838.73;126335;1316;108766;-80
2021/11/24 09:39:50;;;;;;;41.00;27.30;;;;;;;7.25;78.86;100838.17;126365;1313;108945;-80
2021/11/24 09:43:00;;;;;;;49.00;28.60;;;;;;;7.26;78.83;100835.30;126286;1312;108736;-79
2021/11/24 09:46:06;;;;;;;53.70;31.90;;;;;;;7.25;78.64;100830.20;126354;1312;108730;-80
2021/11/24 09:49:13;;;;;;;53.40;31.50;;;;;;;7.25;78.89;100829.33;126357;1313;109004;-80
2021/11/24 09:52:19;;;;;;;81.90;43.60;;;;;;;7.24;78.66;100825.39;126298;1313;108278;-80
2021/11/24 09:55:26;;;;;;;48.40;26.30;;;;;;;7.17;78.66;100828.06;126389;1312;108700;-80
2021/11/24 09:58:33;;;;;;;45.10;24.80;;;;;;;7.15;78.70;100826.23;126422;1312;108881;-80
2021/11/24 10:01:38;;;;;;;32.80;20.70;;;;;;;7.19;79.15;100824.48;126339;1313;109046;-78
2021/11/24 10:04:45;;;;;;;29.50;18.60;;;;;;;7.28;79.06;100817.65;126389;1313;108997;-81
2021/11/24 10:07:51;;;;;;;31.50;21.70;;;;;;;7.36;78.84;100817.02;126402;1312;108921;-78
2021/11/24 10:10:56;;;;;;;23.60;17.20;;;;;;;7.44;78.81;100813.15;126340;1312;108638;-78
2021/11/24 10:14:02;;;;;;;18.90;12.90;;;;;;;7.53;78.76;100807.40;126473;1313;108829;-81
2021/11/24 10:17:10;;;;;;;17.20;12.00;;;;;;;7.57;78.53;100803.48;126547;1313;108926;-80
2021/11/24 10:20:16;;;;;;;18.20;12.80;;;;;;;7.59;78.75;100799.70;126475;1313;109701;-81
2021/11/24 10:23:31;;;;;;;17.80;12.40;;;;;;;7.59;78.63;100794.36;126550;1310;109060;-80
2021/11/24 10:26:38;;;;;;;16.00;10.90;;;;;;;7.66;78.84;100793.08;126499;1312;107738;-80
2021/11/24 10:29:55;;;;;;;16.10;11.50;;;;;;;7.77;78.57;100790.63;126703;1311;108883;-81
2021/11/24 10:33:17;;;;;;;16.30;11.50;;;;;;;7.90;78.90;100786.04;126373;1312;108907;-80
2021/11/24 10:36:23;;;;;;;15.90;10.80;;;;;;;7.97;78.42;100782.83;126443;1312;108204;-80
2021/11/24 10:39:31;;;;;;;15.30;11.30;;;;;;;8.01;78.56;100782.09;126462;1313;108914;-79
2021/11/24 10:42:38;;;;;;;16.30;11.10;;;;;;;8.02;78.40;100776.26;126462;1313;108554;-80
2021/11/24 10:45:55;;;;;;;15.90;11.20;;;;;;;8.05;78.57;100773.35;126426;1312;108793;-80
2021/11/24 10:49:07;;;;;;;14.20;9.40;;;;;;;8.15;78.39;100770.75;126506;1314;107415;-79
2021/11/24 10:52:16;;;;;;;;;;;;;;;8.21;78.43;100773.05;126455;1313;108020;-80
2021/11/24 10:55:27;;;;;;;15.60;11.60;;;;;;;8.29;78.18;100770.70;126339;1313;108921;-79
2021/11/24 10:58:37;;;;;;;16.70;11.60;;;;;;;8.37;78.25;100767.17;126485;1312;108677;-80
2021/11/24 11:01:43;;;;;;;15.40;10.80;;;;;;;8.47;78.03;100759.14;126443;1313;109748;-80
2021/11/24 11:05:05;;;;;;;18.90;12.40;;;;;;;8.51;77.81;100765.90;126448;1312;108605;-80
2021/11/24 11:08:13;;;;;;;17.10;11.20;;;;;;;8.52;77.62;100764.73;126516;1312;107837;-80
2021/11/24 11:11:29;;;;;;;15.90;11.00;;;;;;;8.49;77.67;100759.67;126381;1312;107874;-80
2021/11/24 11:14:35;;;;;;;13.50;9.30;;;;;;;8.41;77.33;100757.50;126490;1314;108784;-79
2021/11/24 11:17:54;;;;;;;12.50;9.00;;;;;;;8.40;77.59;100753.98;126435;1312;108911;-80
2021/11/24 11:21:03;;;;;;;16.00;10.40;;;;;;;8.43;77.28;100751.78;126473;1312;108920;-78
2021/11/24 11:24:11;;;;;;;13.90;9.90;;;;;;;8.49;77.38;100745.81;126413;1315;109068;-81
2021/11/24 11:27:16;;;;;;;13.90;10.30;;;;;;;8.62;77.50;100744.52;126470;1313;108739;-80
2021/11/24 11:30:22;;;;;;;15.30;10.30;;;;;;;8.75;77.17;100742.93;126414;1312;108958;-80
2021/11/24 11:33:31;;;;;;;14.20;10.70;;;;;;;8.80;77.13;100732.99;126302;1312;108995;-80
2021/11/24 11:36:37;;;;;;;15.10;10.60;;;;;;;8.86;77.07;100730.67;126312;1312;108763;-78
2021/11/24 11:39:42;;;;;;;15.30;10.70;;;;;;;8.89;76.75;100725.81;126347;1312;108819;-78
2021/11/24 11:42:50;;;;;;;16.20;11.60;;;;;;;8.85;76.86;100724.89;126295;1312;108886;-78
2021/11/24 11:45:56;;;;;;;15.60;10.60;;;;;;;8.82;76.56;100722.69;126306;1316;108841;-79
2021/11/24 11:49:10;;;;;;;13.00;9.00;;;;;;;8.71;76.81;100719.53;126265;1316;108685;-80
2021/11/24 11:52:16;;;;;;;14.30;10.70;;;;;;;8.68;76.97;100720.50;126556;1313;107857;-80
2021/11/24 11:55:23;;;;;;;14.90;10.20;;;;;;;8.65;76.22;100720.87;126492;1312;109279;-79
2021/11/24 11:58:30;;;;;;;15.70;10.60;;;;;;;8.60;76.67;100723.14;126496;1312;108429;-80
2021/11/24 12:01:54;;;;;;;13.60;9.90;;;;;;;8.63;76.66;100721.60;126497;1313;108754;-78
2021/11/24 12:05:06;;;;;;;14.10;10.50;;;;;;;8.64;76.14;100717.08;126455;1313;109066;-79
2021/11/24 12:08:13;;;;;;;15.10;10.30;;;;;;;8.58;76.28;100715.45;126600;1312;108916;-79
2021/11/24 12:11:18;;;;;;;13.90;10.20;;;;;;;8.56;76.17;100709.80;126392;1316;108715;-80
2021/11/24 12:14:47;;;;;;;14.80;10.60;;;;;;;8.55;76.20;100710.92;126457;1313;108741;-79
2021/11/24 12:17:58;;;;;;;14.50;9.70;;;;;;;8.49;76.08;100710.02;126422;1312;106971;-80
2021/11/24 12:21:04;;;;;;;12.00;8.70;;;;;;;8.47;76.11;100705.62;126457;1312;108716;-79
2021/11/24 12:24:10;;;;;;;15.00;10.50;;;;;;;8.50;76.15;100701.48;126440;1316;108652;-78
2021/11/24 12:27:15;;;;;;;15.80;11.00;;;;;;;8.52;75.96;100702.86;126430;1312;108823;-80
2021/11/24 12:30:53;;;;;;;15.00;10.40;;;;;;;8.54;76.04;100700.20;126513;1313;109048;-81
2021/11/24 12:34:00;;;;;;;15.50;11.30;;;;;;;8.55;76.01;100696.92;126584;1313;108906;-80
2021/11/24 12:37:17;;;;;;;14.60;10.80;;;;;;;8.53;75.91;100692.81;126501;1316;108788;-80
2021/11/24 12:40:29;;;;;;;15.60;11.30;;;;;;;8.49;75.68;100696.39;126382;1313;108727;-80
2021/11/24 12:43:37;;;;;;;16.10;11.40;;;;;;;8.44;75.91;100696.62;126398;1310;107491;-80
2021/11/24 12:46:44;;;;;;;16.60;11.70;;;;;;;8.37;75.67;100693.27;126533;1313;108834;-80
2021/11/24 12:49:50;;;;;;;15.20;10.80;;;;;;;8.30;75.83;100692.94;126451;1313;108885;-81
2021/11/24 12:53:00;;;;;;;14.60;9.70;;;;;;;8.18;75.90;100694.81;126417;1316;107260;-78
2021/11/24 12:56:14;;;;;;;16.80;11.10;;;;;;;8.16;76.09;100696.54;126362;1313;108489;-80
2021/11/24 12:59:21;;;;;;;16.10;11.20;;;;;;;8.18;76.20;100694.83;126347;1316;107219;-80
2021/11/24 13:02:28;;;;;;;17.40;12.10;;;;;;;8.20;76.09;100693.23;126331;1312;108725;-78
2021/11/24 13:05:33;;;;;;;17.30;12.50;;;;;;;8.20;75.91;100691.64;126414;1316;108876;-78
2021/11/24 13:08:39;;;;;;;20.10;12.80;;;;;;;8.18;76.05;100695.87;126580;1311;108769;-79
2021/11/24 13:11:52;;;;;;;17.00;11.90;;;;;;;8.15;76.16;100695.79;126452;1316;108783;-81
2021/11/24 13:14:58;;;;;;;17.80;12.40;;;;;;;8.07;76.14;100698.55;126617;1313;108654;-80
2021/11/24 13:18:04;;;;;;;15.20;10.60;;;;;;;7.95;76.17;100697.47;126508;1312;107435;-80
2021/11/24 13:21:09;;;;;;;15.70;10.40;;;;;;;7.88;76.29;100696.57;126458;1312;109211;-80
2021/11/24 13:24:15;;;;;;;18.30;12.30;;;;;;;7.85;76.63;100692.04;126426;1317;109413;-80
2021/11/24 13:27:20;;;;;;;17.50;11.70;;;;;;;7.85;76.49;100677.30;126370;1316;108830;-80
2021/11/24 13:30:28;;;;;;;15.70;11.70;;;;;;;7.88;76.70;100677.11;126459;1313;108749;-80
2021/11/24 13:33:34;;;;;;;22.10;14.50;;;;;;;7.92;76.69;100677.11;126556;1312;108972;-81
2021/11/24 13:36:47;;;;;;;19.70;13.00;;;;;;;7.94;76.46;100675.34;126553;1313;108788;-80
2021/11/24 13:39:56;;;;;;;21.50;14.80;;;;;;;7.93;76.58;100674.19;126566;1312;107512;-80
2021/11/24 13:43:02;;;;;;;17.30;12.60;;;;;;;7.91;76.91;100668.68;126615;1312;108986;-80
2021/11/24 13:46:15;;;;;;;18.10;12.50;;;;;;;7.87;76.73;100661.91;126463;1312;108984;-80
2021/11/24 13:49:27;;;;;;;16.00;10.70;;;;;;;7.81;76.64;100661.92;126573;1316;108789;-80
2021/11/24 13:52:36;;;;;;;17.90;11.90;;;;;;;7.78;76.52;100665.45;126518;1317;108713;-79
2021/11/24 13:55:42;;;;;;;16.00;11.20;;;;;;;7.80;76.65;100666.35;126464;1316;108871;-81
2021/11/24 13:59:01;;;;;;;18.10;12.40;;;;;;;7.83;76.63;100666.67;126536;1316;109160;-80
2021/11/24 14:02:08;;;;;;;18.30;12.20;;;;;;;7.84;76.66;100662.54;126428;1312;109001;-78